sensor_id;sensor_type;location;lat;lon;timestamp;P1;durP1;ratioP1;P2;durP2;ratioP2
15876;SDS011;8037;51.666;7.834;2023-02-28T00:01:02;2.97;;;0.50;;
15876;SDS011;8037;51.666;7.834;2023-02-28T00:03:28;0.50;;;0.50;;
15876;SDS011;8037;51.666;7.834;2023-02-28T00:05:54;0.70;;;0.70;;
15876;SDS011;8037;51.666;7.834;2023-02-28T00:08:20;11.23;;;0.90;;
15876;SDS011;8037;51.666;7.834;2023-02-28T00:10:46;0.87;;;0.87;;
15876;SDS011;8037;51.666;7.834;2023-02-28T00:13:12;0.80;;;0.80;;
15876;SDS011;8037;51.666;7.834;2023-02-28T00:15:38;1.13;;;0.80;;
15876;SDS011;8037;51.666;7.834;2023-02-28T00:18:04;0.30;;;0.30;;
15876;SDS011;8037;51.666;7.834;2023-02-28T00:20:30;0.70;;;0.50;;
15876;SDS011;8037;51.666;7.834;2023-02-28T00:22:56;0.80;;;0.80;;
15876;SDS011;8037;51.666;7.834;2023-02-28T00:25:23;0.57;;;0.57;;
15876;SDS011;8037;51.666;7.834;2023-02-28T00:27:49;0.70;;;0.70;;
15876;SDS011;8037;51.666;7.834;2023-02-28T00:30:20;0.50;;;0.50;;
15876;SDS011;8037;51.666;7.834;2023-02-28T00:32:46;4.63;;;1.50;;
15876;SDS011;8037;51.666;7.834;2023-02-28T00:35:12;1.53;;;0.80;;
15876;SDS011;8037;51.666;7.834;2023-02-28T00:37:38;1.43;;;1.33;;
15876;SDS011;8037;51.666;7.834;2023-02-28T00:40:04;0.63;;;0.63;;
15876;SDS011;8037;51.666;7.834;2023-02-28T00:42:31;0.40;;;0.37;;
15876;SDS011;8037;51.666;7.834;2023-02-28T00:44:57;0.63;;;0.63;;
15876;SDS011;8037;51.666;7.834;2023-02-28T00:47:23;0.50;;;0.50;;
15876;SDS011;8037;51.666;7.834;2023-02-28T00:49:49;0.80;;;0.50;;
15876;SDS011;8037;51.666;7.834;2023-02-28T00:52:15;4.53;;;0.50;;
15876;SDS011;8037;51.666;7.834;2023-02-28T00:54:41;0.33;;;0.33;;
15876;SDS011;8037;51.666;7.834;2023-02-28T00:57:06;1.57;;;0.87;;
15876;SDS011;8037;51.666;7.834;2023-02-28T00:59:32;0.40;;;0.30;;
15876;SDS011;8037;51.666;7.834;2023-02-28T01:01:58;0.60;;;0.60;;
15876;SDS011;8037;51.666;7.834;2023-02-28T01:04:24;0.67;;;0.67;;
15876;SDS011;8037;51.666;7.834;2023-02-28T01:06:50;0.40;;;0.40;;
15876;SDS011;8037;51.666;7.834;2023-02-28T01:09:16;0.50;;;0.50;;
15876;SDS011;8037;51.666;7.834;2023-02-28T01:11:42;0.80;;;0.63;;
15876;SDS011;8037;51.666;7.834;2023-02-28T01:14:10;0.50;;;0.50;;
15876;SDS011;8037;51.666;7.834;2023-02-28T01:16:37;0.30;;;0.30;;
15876;SDS011;8037;51.666;7.834;2023-02-28T01:19:03;2.20;;;0.40;;
15876;SDS011;8037;51.666;7.834;2023-02-28T01:21:28;0.97;;;0.87;;
15876;SDS011;8037;51.666;7.834;2023-02-28T01:23:56;0.30;;;0.30;;
15876;SDS011;8037;51.666;7.834;2023-02-28T01:26:22;0.83;;;0.83;;
15876;SDS011;8037;51.666;7.834;2023-02-28T01:28:48;0.60;;;0.40;;
15876;SDS011;8037;51.666;7.834;2023-02-28T01:31:15;0.30;;;0.30;;
15876;SDS011;8037;51.666;7.834;2023-02-28T01:33:41;0.50;;;0.50;;
15876;SDS011;8037;51.666;7.834;2023-02-28T01:36:09;0.93;;;0.60;;
15876;SDS011;8037;51.666;7.834;2023-02-28T01:38:36;0.40;;;0.40;;
15876;SDS011;8037;51.666;7.834;2023-02-28T01:41:02;0.60;;;0.60;;
15876;SDS011;8037;51.666;7.834;2023-02-28T01:46:09;0.87;;;0.80;;
15876;SDS011;8037;51.666;7.834;2023-02-28T01:48:36;0.90;;;0.90;;
15876;SDS011;8037;51.666;7.834;2023-02-28T01:51:08;0.57;;;0.57;;
15876;SDS011;8037;51.666;7.834;2023-02-28T01:53:43;0.60;;;0.60;;
15876;SDS011;8037;51.666;7.834;2023-02-28T01:56:09;0.73;;;0.73;;
15876;SDS011;8037;51.666;7.834;2023-02-28T01:58:45;0.77;;;0.77;;
15876;SDS011;8037;51.666;7.834;2023-02-28T02:01:12;0.80;;;0.70;;
15876;SDS011;8037;51.666;7.834;2023-02-28T02:03:46;1.03;;;0.63;;
15876;SDS011;8037;51.666;7.834;2023-02-28T02:06:12;0.53;;;0.53;;
15876;SDS011;8037;51.666;7.834;2023-02-28T02:08:38;2.03;;;1.07;;
15876;SDS011;8037;51.666;7.834;2023-02-28T02:11:04;0.40;;;0.40;;
15876;SDS011;8037;51.666;7.834;2023-02-28T02:13:47;0.50;;;0.50;;
15876;SDS011;8037;51.666;7.834;2023-02-28T02:16:28;3.57;;;1.37;;
15876;SDS011;8037;51.666;7.834;2023-02-28T02:19:14;2.60;;;1.33;;
15876;SDS011;8037;51.666;7.834;2023-02-28T02:27:22;0.70;;;0.60;;
15876;SDS011;8037;51.666;7.834;2023-02-28T02:35:14;0.30;;;0.30;;
15876;SDS011;8037;51.666;7.834;2023-02-28T02:37:43;1.90;;;0.50;;
15876;SDS011;8037;51.666;7.834;2023-02-28T02:43:21;0.40;;;0.40;;
15876;SDS011;8037;51.666;7.834;2023-02-28T02:45:34;0.70;;;0.70;;
15876;SDS011;8037;51.666;7.834;2023-02-28T02:48:03;0.50;;;0.50;;
15876;SDS011;8037;51.666;7.834;2023-02-28T02:50:39;1.00;;;0.90;;
15876;SDS011;8037;51.666;7.834;2023-02-28T02:53:06;0.50;;;0.40;;
15876;SDS011;8037;51.666;7.834;2023-02-28T02:55:33;0.47;;;0.47;;
15876;SDS011;8037;51.666;7.834;2023-02-28T02:58:04;0.53;;;0.53;;
15876;SDS011;8037;51.666;7.834;2023-02-28T03:00:33;0.40;;;0.40;;
15876;SDS011;8037;51.666;7.834;2023-02-28T03:03:00;0.40;;;0.40;;
15876;SDS011;8037;51.666;7.834;2023-02-28T03:05:28;0.67;;;0.67;;
15876;SDS011;8037;51.666;7.834;2023-02-28T03:07:56;0.47;;;0.47;;
15876;SDS011;8037;51.666;7.834;2023-02-28T03:10:36;0.70;;;0.70;;
15876;SDS011;8037;51.666;7.834;2023-02-28T03:13:27;1.20;;;1.13;;
15876;SDS011;8037;51.666;7.834;2023-02-28T03:15:55;1.33;;;0.57;;
15876;SDS011;8037;51.666;7.834;2023-02-28T03:18:26;0.50;;;0.47;;
15876;SDS011;8037;51.666;7.834;2023-02-28T03:21:00;0.53;;;0.53;;
15876;SDS011;8037;51.666;7.834;2023-02-28T03:23:42;0.80;;;0.40;;
15876;SDS011;8037;51.666;7.834;2023-02-28T03:26:17;1.47;;;0.87;;
15876;SDS011;8037;51.666;7.834;2023-02-28T03:31:32;1.13;;;0.90;;
15876;SDS011;8037;51.666;7.834;2023-02-28T03:34:10;0.53;;;0.53;;
15876;SDS011;8037;51.666;7.834;2023-02-28T03:36:38;0.37;;;0.37;;
15876;SDS011;8037;51.666;7.834;2023-02-28T03:39:10;1.13;;;0.70;;
15876;SDS011;8037;51.666;7.834;2023-02-28T03:41:38;2.63;;;1.00;;
15876;SDS011;8037;51.666;7.834;2023-02-28T03:44:12;0.50;;;0.50;;
15876;SDS011;8037;51.666;7.834;2023-02-28T03:46:41;1.60;;;0.83;;
15876;SDS011;8037;51.666;7.834;2023-02-28T03:49:11;0.40;;;0.40;;
15876;SDS011;8037;51.666;7.834;2023-02-28T03:51:39;0.40;;;0.40;;
15876;SDS011;8037;51.666;7.834;2023-02-28T03:54:07;0.40;;;0.40;;
15876;SDS011;8037;51.666;7.834;2023-02-28T03:56:37;0.40;;;0.40;;
15876;SDS011;8037;51.666;7.834;2023-02-28T03:59:05;1.10;;;1.07;;
15876;SDS011;8037;51.666;7.834;2023-02-28T04:01:37;0.40;;;0.40;;
15876;SDS011;8037;51.666;7.834;2023-02-28T04:04:06;0.30;;;0.30;;
15876;SDS011;8037;51.666;7.834;2023-02-28T04:06:32;0.30;;;0.30;;
15876;SDS011;8037;51.666;7.834;2023-02-28T04:08:58;1.17;;;1.07;;
15876;SDS011;8037;51.666;7.834;2023-02-28T04:14:00;0.40;;;0.40;;
15876;SDS011;8037;51.666;7.834;2023-02-28T04:16:27;0.63;;;0.63;;
15876;SDS011;8037;51.666;7.834;2023-02-28T04:18:53;0.40;;;0.40;;
15876;SDS011;8037;51.666;7.834;2023-02-28T04:21:30;0.77;;;0.77;;
15876;SDS011;8037;51.666;7.834;2023-02-28T04:23:56;0.60;;;0.50;;
15876;SDS011;8037;51.666;7.834;2023-02-28T04:26:25;0.30;;;0.30;;
15876;SDS011;8037;51.666;7.834;2023-02-28T04:28:51;0.50;;;0.50;;
15876;SDS011;8037;51.666;7.834;2023-02-28T04:31:17;0.93;;;0.93;;
15876;SDS011;8037;51.666;7.834;2023-02-28T04:33:43;0.60;;;0.50;;
15876;SDS011;8037;51.666;7.834;2023-02-28T04:36:09;0.50;;;0.50;;
15876;SDS011;8037;51.666;7.834;2023-02-28T04:38:36;0.50;;;0.40;;
15876;SDS011;8037;51.666;7.834;2023-02-28T04:41:02;0.40;;;0.40;;
15876;SDS011;8037;51.666;7.834;2023-02-28T04:43:28;0.50;;;0.50;;
15876;SDS011;8037;51.666;7.834;2023-02-28T04:45:55;0.50;;;0.50;;
15876;SDS011;8037;51.666;7.834;2023-02-28T04:48:22;1.07;;;0.97;;
15876;SDS011;8037;51.666;7.834;2023-02-28T04:50:48;0.50;;;0.50;;
15876;SDS011;8037;51.666;7.834;2023-02-28T04:53:14;0.50;;;0.50;;
15876;SDS011;8037;51.666;7.834;2023-02-28T04:55:40;0.50;;;0.50;;
15876;SDS011;8037;51.666;7.834;2023-02-28T04:58:06;1.40;;;1.00;;
15876;SDS011;8037;51.666;7.834;2023-02-28T05:00:32;0.70;;;0.70;;
15876;SDS011;8037;51.666;7.834;2023-02-28T05:02:58;0.73;;;0.73;;
15876;SDS011;8037;51.666;7.834;2023-02-28T05:05:23;0.30;;;0.30;;
15876;SDS011;8037;51.666;7.834;2023-02-28T05:07:49;0.40;;;0.40;;
15876;SDS011;8037;51.666;7.834;2023-02-28T05:10:15;0.53;;;0.53;;
15876;SDS011;8037;51.666;7.834;2023-02-28T05:12:42;0.30;;;0.30;;
15876;SDS011;8037;51.666;7.834;2023-02-28T05:15:09;0.40;;;0.40;;
15876;SDS011;8037;51.666;7.834;2023-02-28T05:17:38;0.50;;;0.50;;
15876;SDS011;8037;51.666;7.834;2023-02-28T05:20:04;0.47;;;0.47;;
15876;SDS011;8037;51.666;7.834;2023-02-28T05:22:30;0.30;;;0.30;;
15876;SDS011;8037;51.666;7.834;2023-02-28T05:24:57;1.23;;;0.70;;
15876;SDS011;8037;51.666;7.834;2023-02-28T05:27:23;3.17;;;0.43;;
15876;SDS011;8037;51.666;7.834;2023-02-28T05:29:48;0.30;;;0.30;;
15876;SDS011;8037;51.666;7.834;2023-02-28T05:32:14;1.23;;;0.93;;
15876;SDS011;8037;51.666;7.834;2023-02-28T05:34:40;0.50;;;0.50;;
15876;SDS011;8037;51.666;7.834;2023-02-28T05:37:10;0.57;;;0.57;;
15876;SDS011;8037;51.666;7.834;2023-02-28T05:39:37;1.00;;;0.50;;
15876;SDS011;8037;51.666;7.834;2023-02-28T05:42:03;0.47;;;0.47;;
15876;SDS011;8037;51.666;7.834;2023-02-28T05:44:29;0.50;;;0.50;;
15876;SDS011;8037;51.666;7.834;2023-02-28T05:46:55;2.00;;;1.43;;
15876;SDS011;8037;51.666;7.834;2023-02-28T05:49:21;0.50;;;0.40;;
15876;SDS011;8037;51.666;7.834;2023-02-28T05:51:47;1.33;;;1.10;;
15876;SDS011;8037;51.666;7.834;2023-02-28T05:54:13;0.40;;;0.40;;
15876;SDS011;8037;51.666;7.834;2023-02-28T05:56:39;0.53;;;0.53;;
15876;SDS011;8037;51.666;7.834;2023-02-28T05:59:08;1.80;;;0.50;;
15876;SDS011;8037;51.666;7.834;2023-02-28T06:04:00;0.90;;;0.90;;
15876;SDS011;8037;51.666;7.834;2023-02-28T06:06:27;0.40;;;0.40;;
15876;SDS011;8037;51.666;7.834;2023-02-28T06:08:54;1.00;;;1.00;;
15876;SDS011;8037;51.666;7.834;2023-02-28T06:11:19;0.87;;;0.87;;
15876;SDS011;8037;51.666;7.834;2023-02-28T06:13:45;0.70;;;0.70;;
15876;SDS011;8037;51.666;7.834;2023-02-28T06:16:11;0.40;;;0.40;;
15876;SDS011;8037;51.666;7.834;2023-02-28T06:18:37;1.00;;;1.00;;
15876;SDS011;8037;51.666;7.834;2023-02-28T06:21:03;2.20;;;1.17;;
15876;SDS011;8037;51.666;7.834;2023-02-28T06:23:29;0.80;;;0.80;;
15876;SDS011;8037;51.666;7.834;2023-02-28T06:25:55;3.33;;;1.23;;
15876;SDS011;8037;51.666;7.834;2023-02-28T06:28:23;3.23;;;0.73;;
15876;SDS011;8037;51.666;7.834;2023-02-28T06:30:49;0.80;;;0.80;;
15876;SDS011;8037;51.666;7.834;2023-02-28T06:33:15;0.87;;;0.83;;
15876;SDS011;8037;51.666;7.834;2023-02-28T06:35:46;1.13;;;1.13;;
15876;SDS011;8037;51.666;7.834;2023-02-28T06:38:12;0.73;;;0.73;;
15876;SDS011;8037;51.666;7.834;2023-02-28T06:40:38;0.83;;;0.53;;
15876;SDS011;8037;51.666;7.834;2023-02-28T06:43:04;0.67;;;0.67;;
15876;SDS011;8037;51.666;7.834;2023-02-28T06:45:30;0.87;;;0.87;;
15876;SDS011;8037;51.666;7.834;2023-02-28T06:47:55;0.93;;;0.93;;
15876;SDS011;8037;51.666;7.834;2023-02-28T06:50:23;3.40;;;1.03;;
15876;SDS011;8037;51.666;7.834;2023-02-28T06:52:48;0.93;;;0.60;;
15876;SDS011;8037;51.666;7.834;2023-02-28T06:55:18;0.70;;;0.70;;
15876;SDS011;8037;51.666;7.834;2023-02-28T06:57:44;3.43;;;0.70;;
15876;SDS011;8037;51.666;7.834;2023-02-28T07:00:10;0.40;;;0.40;;
15876;SDS011;8037;51.666;7.834;2023-02-28T07:02:37;1.00;;;0.83;;
15876;SDS011;8037;51.666;7.834;2023-02-28T07:05:04;1.23;;;1.23;;
15876;SDS011;8037;51.666;7.834;2023-02-28T07:07:30;1.30;;;1.20;;
15876;SDS011;8037;51.666;7.834;2023-02-28T07:09:57;1.47;;;1.43;;
15876;SDS011;8037;51.666;7.834;2023-02-28T07:12:23;1.27;;;0.93;;
15876;SDS011;8037;51.666;7.834;2023-02-28T07:14:49;0.60;;;0.60;;
15876;SDS011;8037;51.666;7.834;2023-02-28T07:17:15;3.47;;;1.00;;
15876;SDS011;8037;51.666;7.834;2023-02-28T07:19:41;1.60;;;1.43;;
15876;SDS011;8037;51.666;7.834;2023-02-28T07:22:07;1.43;;;1.13;;
15876;SDS011;8037;51.666;7.834;2023-02-28T07:24:33;0.90;;;0.90;;
15876;SDS011;8037;51.666;7.834;2023-02-28T07:26:59;0.90;;;0.87;;
15876;SDS011;8037;51.666;7.834;2023-02-28T07:29:26;0.77;;;0.77;;
15876;SDS011;8037;51.666;7.834;2023-02-28T07:31:52;0.97;;;0.90;;
15876;SDS011;8037;51.666;7.834;2023-02-28T07:34:18;1.33;;;1.00;;
15876;SDS011;8037;51.666;7.834;2023-02-28T07:36:44;0.83;;;0.80;;
15876;SDS011;8037;51.666;7.834;2023-02-28T07:39:10;1.00;;;1.00;;
15876;SDS011;8037;51.666;7.834;2023-02-28T07:41:36;2.13;;;1.83;;
15876;SDS011;8037;51.666;7.834;2023-02-28T07:44:08;1.47;;;1.30;;
15876;SDS011;8037;51.666;7.834;2023-02-28T07:46:34;0.73;;;0.73;;
15876;SDS011;8037;51.666;7.834;2023-02-28T07:49:01;1.40;;;1.30;;
15876;SDS011;8037;51.666;7.834;2023-02-28T07:51:28;1.20;;;0.97;;
15876;SDS011;8037;51.666;7.834;2023-02-28T07:53:54;0.90;;;0.90;;
15876;SDS011;8037;51.666;7.834;2023-02-28T07:56:20;1.80;;;0.93;;
15876;SDS011;8037;51.666;7.834;2023-02-28T07:58:46;43.70;;;1.43;;
15876;SDS011;8037;51.666;7.834;2023-02-28T08:01:12;1.47;;;1.37;;
15876;SDS011;8037;51.666;7.834;2023-02-28T08:03:38;0.70;;;0.67;;
15876;SDS011;8037;51.666;7.834;2023-02-28T08:06:05;1.70;;;0.90;;
15876;SDS011;8037;51.666;7.834;2023-02-28T08:08:31;1.73;;;1.33;;
15876;SDS011;8037;51.666;7.834;2023-02-28T08:11:00;1.00;;;1.00;;
15876;SDS011;8037;51.666;7.834;2023-02-28T08:13:27;1.23;;;1.07;;
15876;SDS011;8037;51.666;7.834;2023-02-28T08:15:54;1.37;;;0.97;;
15876;SDS011;8037;51.666;7.834;2023-02-28T08:18:20;0.90;;;0.90;;
15876;SDS011;8037;51.666;7.834;2023-02-28T08:20:46;1.20;;;1.10;;
15876;SDS011;8037;51.666;7.834;2023-02-28T08:23:12;5.33;;;0.83;;
15876;SDS011;8037;51.666;7.834;2023-02-28T08:25:38;2.30;;;1.33;;
15876;SDS011;8037;51.666;7.834;2023-02-28T08:28:04;2.63;;;1.87;;
15876;SDS011;8037;51.666;7.834;2023-02-28T08:30:30;1.17;;;1.07;;
15876;SDS011;8037;51.666;7.834;2023-02-28T08:32:56;1.00;;;0.97;;
15876;SDS011;8037;51.666;7.834;2023-02-28T08:35:22;4.77;;;1.50;;
15876;SDS011;8037;51.666;7.834;2023-02-28T08:37:48;10.03;;;1.63;;
15876;SDS011;8037;51.666;7.834;2023-02-28T08:40:15;1.67;;;1.57;;
15876;SDS011;8037;51.666;7.834;2023-02-28T08:42:46;1.00;;;1.00;;
15876;SDS011;8037;51.666;7.834;2023-02-28T08:45:12;1.47;;;1.37;;
15876;SDS011;8037;51.666;7.834;2023-02-28T08:47:38;1.67;;;1.57;;
15876;SDS011;8037;51.666;7.834;2023-02-28T08:50:05;2.57;;;1.40;;
15876;SDS011;8037;51.666;7.834;2023-02-28T08:52:31;1.20;;;1.20;;
15876;SDS011;8037;51.666;7.834;2023-02-28T08:54:57;4.93;;;1.30;;
15876;SDS011;8037;51.666;7.834;2023-02-28T08:57:25;1.17;;;1.13;;
15876;SDS011;8037;51.666;7.834;2023-02-28T08:59:52;3.20;;;0.97;;
15876;SDS011;8037;51.666;7.834;2023-02-28T09:02:18;3.33;;;1.53;;
15876;SDS011;8037;51.666;7.834;2023-02-28T09:04:44;2.60;;;1.77;;
15876;SDS011;8037;51.666;7.834;2023-02-28T09:07:10;0.77;;;0.77;;
15876;SDS011;8037;51.666;7.834;2023-02-28T09:09:36;2.23;;;1.23;;
15876;SDS011;8037;51.666;7.834;2023-02-28T09:12:25;0.83;;;0.80;;
15876;SDS011;8037;51.666;7.834;2023-02-28T09:14:52;2.40;;;0.83;;
15876;SDS011;8037;51.666;7.834;2023-02-28T09:17:18;0.80;;;0.67;;
15876;SDS011;8037;51.666;7.834;2023-02-28T09:19:44;3.23;;;0.90;;
15876;SDS011;8037;51.666;7.834;2023-02-28T09:22:10;0.83;;;0.83;;
15876;SDS011;8037;51.666;7.834;2023-02-28T09:24:37;0.67;;;0.67;;
15876;SDS011;8037;51.666;7.834;2023-02-28T09:27:03;1.03;;;0.70;;
15876;SDS011;8037;51.666;7.834;2023-02-28T09:29:30;1.27;;;0.70;;
15876;SDS011;8037;51.666;7.834;2023-02-28T09:31:57;1.03;;;0.87;;
15876;SDS011;8037;51.666;7.834;2023-02-28T09:34:24;1.00;;;0.80;;
15876;SDS011;8037;51.666;7.834;2023-02-28T09:36:50;1.50;;;0.97;;
15876;SDS011;8037;51.666;7.834;2023-02-28T09:39:20;1.30;;;1.20;;
15876;SDS011;8037;51.666;7.834;2023-02-28T09:41:47;0.87;;;0.87;;
15876;SDS011;8037;51.666;7.834;2023-02-28T09:46:48;0.70;;;0.70;;
15876;SDS011;8037;51.666;7.834;2023-02-28T09:49:16;1.87;;;1.50;;
15876;SDS011;8037;51.666;7.834;2023-02-28T09:54:19;2.30;;;0.90;;
15876;SDS011;8037;51.666;7.834;2023-02-28T09:56:50;1.33;;;1.23;;
15876;SDS011;8037;51.666;7.834;2023-02-28T10:04:47;0.50;;;0.50;;
15876;SDS011;8037;51.666;7.834;2023-02-28T10:07:18;0.63;;;0.63;;
15876;SDS011;8037;51.666;7.834;2023-02-28T10:09:47;1.07;;;0.80;;
15876;SDS011;8037;51.666;7.834;2023-02-28T10:12:14;0.60;;;0.57;;
15876;SDS011;8037;51.666;7.834;2023-02-28T10:14:43;3.50;;;1.43;;
15876;SDS011;8037;51.666;7.834;2023-02-28T10:17:11;1.13;;;1.10;;
15876;SDS011;8037;51.666;7.834;2023-02-28T10:19:42;0.80;;;0.70;;
15876;SDS011;8037;51.666;7.834;2023-02-28T10:25:18;1.57;;;1.10;;
15876;SDS011;8037;51.666;7.834;2023-02-28T10:27:44;0.80;;;0.80;;
15876;SDS011;8037;51.666;7.834;2023-02-28T10:30:10;1.40;;;1.30;;
15876;SDS011;8037;51.666;7.834;2023-02-28T10:32:38;0.77;;;0.77;;
15876;SDS011;8037;51.666;7.834;2023-02-28T10:37:36;0.90;;;0.80;;
15876;SDS011;8037;51.666;7.834;2023-02-28T10:40:04;0.63;;;0.63;;
15876;SDS011;8037;51.666;7.834;2023-02-28T10:42:30;0.90;;;0.90;;
15876;SDS011;8037;51.666;7.834;2023-02-28T10:47:32;0.70;;;0.70;;
15876;SDS011;8037;51.666;7.834;2023-02-28T10:49:59;1.20;;;1.10;;
15876;SDS011;8037;51.666;7.834;2023-02-28T10:52:39;1.87;;;0.90;;
15876;SDS011;8037;51.666;7.834;2023-02-28T10:55:18;1.57;;;1.47;;
15876;SDS011;8037;51.666;7.834;2023-02-28T10:57:45;2.00;;;0.80;;
15876;SDS011;8037;51.666;7.834;2023-02-28T11:00:14;0.87;;;0.87;;
15876;SDS011;8037;51.666;7.834;2023-02-28T11:02:40;0.73;;;0.73;;
15876;SDS011;8037;51.666;7.834;2023-02-28T11:05:22;1.50;;;1.40;;
15876;SDS011;8037;51.666;7.834;2023-02-28T11:07:56;4.33;;;0.70;;
15876;SDS011;8037;51.666;7.834;2023-02-28T11:10:25;0.83;;;0.77;;
15876;SDS011;8037;51.666;7.834;2023-02-28T11:12:54;1.13;;;1.13;;
15876;SDS011;8037;51.666;7.834;2023-02-28T11:18:00;1.43;;;1.33;;
15876;SDS011;8037;51.666;7.834;2023-02-28T11:20:27;1.73;;;1.60;;
15876;SDS011;8037;51.666;7.834;2023-02-28T11:22:57;1.53;;;1.43;;
15876;SDS011;8037;51.666;7.834;2023-02-28T11:25:29;1.57;;;1.47;;
15876;SDS011;8037;51.666;7.834;2023-02-28T11:27:59;2.00;;;1.10;;
15876;SDS011;8037;51.666;7.834;2023-02-28T11:33:00;1.10;;;1.00;;
15876;SDS011;8037;51.666;7.834;2023-02-28T11:35:43;1.47;;;1.40;;
15876;SDS011;8037;51.666;7.834;2023-02-28T11:38:09;1.47;;;1.20;;
15876;SDS011;8037;51.666;7.834;2023-02-28T11:40:45;4.23;;;1.50;;
15876;SDS011;8037;51.666;7.834;2023-02-28T11:46:06;1.03;;;0.90;;
15876;SDS011;8037;51.666;7.834;2023-02-28T11:48:58;2.60;;;1.43;;
15876;SDS011;8037;51.666;7.834;2023-02-28T11:51:28;1.27;;;0.90;;
15876;SDS011;8037;51.666;7.834;2023-02-28T11:54:05;0.70;;;0.60;;
15876;SDS011;8037;51.666;7.834;2023-02-28T11:59:02;1.00;;;1.00;;
15876;SDS011;8037;51.666;7.834;2023-02-28T12:04:27;0.90;;;0.80;;
15876;SDS011;8037;51.666;7.834;2023-02-28T12:11:52;0.80;;;0.80;;
15876;SDS011;8037;51.666;7.834;2023-02-28T12:17:06;2.40;;;0.90;;
15876;SDS011;8037;51.666;7.834;2023-02-28T12:19:42;0.97;;;0.80;;
15876;SDS011;8037;51.666;7.834;2023-02-28T12:22:12;1.20;;;1.10;;
15876;SDS011;8037;51.666;7.834;2023-02-28T12:27:24;1.93;;;1.30;;
15876;SDS011;8037;51.666;7.834;2023-02-28T12:32:41;0.90;;;0.90;;
15876;SDS011;8037;51.666;7.834;2023-02-28T12:35:14;0.80;;;0.80;;
15876;SDS011;8037;51.666;7.834;2023-02-28T12:37:49;1.53;;;1.43;;
15876;SDS011;8037;51.666;7.834;2023-02-28T12:40:21;1.10;;;1.00;;
15876;SDS011;8037;51.666;7.834;2023-02-28T12:42:49;1.23;;;1.23;;
15876;SDS011;8037;51.666;7.834;2023-02-28T12:45:20;0.80;;;0.80;;
15876;SDS011;8037;51.666;7.834;2023-02-28T12:47:51;1.17;;;1.03;;
15876;SDS011;8037;51.666;7.834;2023-02-28T12:50:18;1.40;;;1.10;;
15876;SDS011;8037;51.666;7.834;2023-02-28T13:11:28;1.17;;;1.17;;
15876;SDS011;8037;51.666;7.834;2023-02-28T13:14:03;1.23;;;1.00;;
15876;SDS011;8037;51.666;7.834;2023-02-28T13:16:47;1.60;;;1.50;;
15876;SDS011;8037;51.666;7.834;2023-02-28T13:19:16;1.27;;;1.23;;
15876;SDS011;8037;51.666;7.834;2023-02-28T13:21:43;1.63;;;1.53;;
15876;SDS011;8037;51.666;7.834;2023-02-28T13:24:10;1.40;;;1.30;;
15876;SDS011;8037;51.666;7.834;2023-02-28T13:32:18;1.20;;;1.10;;
15876;SDS011;8037;51.666;7.834;2023-02-28T13:34:39;1.10;;;1.10;;
15876;SDS011;8037;51.666;7.834;2023-02-28T13:39:45;2.37;;;1.50;;
15876;SDS011;8037;51.666;7.834;2023-02-28T13:42:32;6.00;;;2.07;;
15876;SDS011;8037;51.666;7.834;2023-02-28T13:47:34;1.33;;;1.23;;
15876;SDS011;8037;51.666;7.834;2023-02-28T13:52:44;1.40;;;1.40;;
15876;SDS011;8037;51.666;7.834;2023-02-28T14:00:37;1.10;;;1.10;;
15876;SDS011;8037;51.666;7.834;2023-02-28T14:05:41;4.80;;;1.17;;
15876;SDS011;8037;51.666;7.834;2023-02-28T14:08:10;1.63;;;1.50;;
15876;SDS011;8037;51.666;7.834;2023-02-28T14:10:42;3.77;;;2.07;;
15876;SDS011;8037;51.666;7.834;2023-02-28T14:20:40;1.73;;;1.30;;
15876;SDS011;8037;51.666;7.834;2023-02-28T14:23:10;1.37;;;1.33;;
15876;SDS011;8037;51.666;7.834;2023-02-28T14:28:25;1.70;;;1.60;;
15876;SDS011;8037;51.666;7.834;2023-02-28T14:31:18;1.17;;;0.97;;
15876;SDS011;8037;51.666;7.834;2023-02-28T14:36:18;1.20;;;1.20;;
15876;SDS011;8037;51.666;7.834;2023-02-28T14:41:16;1.23;;;1.17;;
15876;SDS011;8037;51.666;7.834;2023-02-28T14:43:51;1.40;;;1.23;;
15876;SDS011;8037;51.666;7.834;2023-02-28T14:46:17;2.17;;;1.90;;
15876;SDS011;8037;51.666;7.834;2023-02-28T14:48:48;1.13;;;1.13;;
15876;SDS011;8037;51.666;7.834;2023-02-28T14:51:18;1.50;;;1.40;;
15876;SDS011;8037;51.666;7.834;2023-02-28T14:53:46;1.37;;;1.27;;
15876;SDS011;8037;51.666;7.834;2023-02-28T14:56:20;2.07;;;1.23;;
15876;SDS011;8037;51.666;7.834;2023-02-28T14:58:50;1.77;;;1.57;;
15876;SDS011;8037;51.666;7.834;2023-02-28T15:01:18;3.07;;;2.27;;
15876;SDS011;8037;51.666;7.834;2023-02-28T15:03:44;2.57;;;1.80;;
15876;SDS011;8037;51.666;7.834;2023-02-28T15:06:13;3.50;;;0.90;;
15876;SDS011;8037;51.666;7.834;2023-02-28T15:08:39;1.17;;;1.07;;
15876;SDS011;8037;51.666;7.834;2023-02-28T15:11:06;1.90;;;1.70;;
15876;SDS011;8037;51.666;7.834;2023-02-28T15:13:40;2.30;;;1.97;;
15876;SDS011;8037;51.666;7.834;2023-02-28T15:18:43;1.60;;;1.50;;
15876;SDS011;8037;51.666;7.834;2023-02-28T15:21:44;4.20;;;1.40;;
15876;SDS011;8037;51.666;7.834;2023-02-28T15:24:16;2.50;;;1.73;;
15876;SDS011;8037;51.666;7.834;2023-02-28T15:26:59;0.83;;;0.83;;
15876;SDS011;8037;51.666;7.834;2023-02-28T15:29:28;1.23;;;1.23;;
15876;SDS011;8037;51.666;7.834;2023-02-28T15:32:01;1.50;;;1.13;;
15876;SDS011;8037;51.666;7.834;2023-02-28T15:34:46;1.10;;;1.10;;
15876;SDS011;8037;51.666;7.834;2023-02-28T15:40:03;5.30;;;2.13;;
15876;SDS011;8037;51.666;7.834;2023-02-28T15:42:30;1.63;;;1.40;;
15876;SDS011;8037;51.666;7.834;2023-02-28T15:44:56;1.33;;;1.33;;
15876;SDS011;8037;51.666;7.834;2023-02-28T15:47:25;1.97;;;1.63;;
15876;SDS011;8037;51.666;7.834;2023-02-28T15:49:56;1.43;;;1.37;;
15876;SDS011;8037;51.666;7.834;2023-02-28T15:52:29;3.90;;;1.50;;
15876;SDS011;8037;51.666;7.834;2023-02-28T15:54:59;8.00;;;2.43;;
15876;SDS011;8037;51.666;7.834;2023-02-28T15:57:33;1.20;;;1.10;;
15876;SDS011;8037;51.666;7.834;2023-02-28T16:00:00;1.87;;;1.60;;
15876;SDS011;8037;51.666;7.834;2023-02-28T16:02:36;1.53;;;1.33;;
15876;SDS011;8037;51.666;7.834;2023-02-28T16:07:28;1.53;;;1.40;;
15876;SDS011;8037;51.666;7.834;2023-02-28T16:09:54;1.70;;;1.60;;
15876;SDS011;8037;51.666;7.834;2023-02-28T16:12:21;2.07;;;1.57;;
15876;SDS011;8037;51.666;7.834;2023-02-28T16:14:49;1.13;;;1.13;;
15876;SDS011;8037;51.666;7.834;2023-02-28T16:17:21;2.03;;;1.33;;
15876;SDS011;8037;51.666;7.834;2023-02-28T16:19:47;2.53;;;1.33;;
15876;SDS011;8037;51.666;7.834;2023-02-28T16:22:13;4.50;;;1.80;;
15876;SDS011;8037;51.666;7.834;2023-02-28T16:24:38;1.63;;;1.40;;
15876;SDS011;8037;51.666;7.834;2023-02-28T16:27:05;1.10;;;1.00;;
15876;SDS011;8037;51.666;7.834;2023-02-28T16:29:32;1.53;;;1.00;;
15876;SDS011;8037;51.666;7.834;2023-02-28T16:32:00;1.07;;;0.93;;
15876;SDS011;8037;51.666;7.834;2023-02-28T16:34:26;1.07;;;1.07;;
15876;SDS011;8037;51.666;7.834;2023-02-28T16:36:52;1.50;;;1.40;;
15876;SDS011;8037;51.666;7.834;2023-02-28T16:39:18;1.10;;;1.00;;
15876;SDS011;8037;51.666;7.834;2023-02-28T16:41:47;0.73;;;0.73;;
15876;SDS011;8037;51.666;7.834;2023-02-28T16:44:17;1.60;;;1.50;;
15876;SDS011;8037;51.666;7.834;2023-02-28T16:46:46;1.10;;;1.10;;
15876;SDS011;8037;51.666;7.834;2023-02-28T16:49:13;3.67;;;2.10;;
15876;SDS011;8037;51.666;7.834;2023-02-28T16:51:39;3.47;;;2.03;;
15876;SDS011;8037;51.666;7.834;2023-02-28T16:54:05;3.37;;;1.77;;
15876;SDS011;8037;51.666;7.834;2023-02-28T16:56:31;2.37;;;2.20;;
15876;SDS011;8037;51.666;7.834;2023-02-28T16:58:58;5.90;;;2.10;;
15876;SDS011;8037;51.666;7.834;2023-02-28T17:01:25;2.30;;;2.10;;
15876;SDS011;8037;51.666;7.834;2023-02-28T17:03:52;2.23;;;1.87;;
15876;SDS011;8037;51.666;7.834;2023-02-28T17:08:44;1.60;;;1.60;;
15876;SDS011;8037;51.666;7.834;2023-02-28T17:11:10;2.60;;;1.40;;
15876;SDS011;8037;51.666;7.834;2023-02-28T17:13:36;1.63;;;1.53;;
15876;SDS011;8037;51.666;7.834;2023-02-28T17:16:02;1.77;;;1.63;;
15876;SDS011;8037;51.666;7.834;2023-02-28T17:18:28;1.87;;;1.70;;
15876;SDS011;8037;51.666;7.834;2023-02-28T17:20:58;9.50;;;1.70;;
15876;SDS011;8037;51.666;7.834;2023-02-28T17:23:24;4.43;;;1.90;;